Mount Vernon, South Dakota
Current Conditions -  °F | °C
As of 6:53 PM on Monday 22 Dec 2014 (Local Time) from KMHE Reporting Station
Haze Haze  
Wind Chill: 27°   Ceiling: 600
Heat Index: 34°   Visibility: 5mi
Dew Point: 33°   Wind: 9mph
Humidity: 96%   Direction: 320°NW
Pressure: 29.48"   Gusts: NA
Location:  43.71°N, 98.26°W
Report Text: KMHE 230053Z AUTO 32008KT 5SM BR OVC006 01/01 A2948 RMK AO2 SLP995 T00110006
Loading
Personal Weather Stations






























Interactive Weather Map New forecast layout! Learn more

10-Day Weather Forecast

Advertisements
Track Severe Weather on mobile